sensor_id;sensor_type;location;lat;lon;timestamp;temperature;humidity
13256;DHT22;37913;48.370;10.930;2023-08-01T00:00:31;17.00;99.90
13256;DHT22;37913;48.370;10.930;2023-08-01T00:02:58;17.00;99.90
13256;DHT22;37913;48.370;10.930;2023-08-01T00:05:25;17.00;99.90
13256;DHT22;37913;48.370;10.930;2023-08-01T00:07:52;17.00;99.90
13256;DHT22;37913;48.370;10.930;2023-08-01T00:10:19;17.00;99.90
13256;DHT22;37913;48.370;10.930;2023-08-01T00:12:47;16.00;99.90
13256;DHT22;37913;48.370;10.930;2023-08-01T00:15:14;17.10;99.90
13256;DHT22;37913;48.370;10.930;2023-08-01T00:17:41;17.10;99.90
13256;DHT22;37913;48.370;10.930;2023-08-01T00:20:09;17.20;99.90
13256;DHT22;37913;48.370;10.930;2023-08-01T00:22:36;17.30;99.90
13256;DHT22;37913;48.370;10.930;2023-08-01T00:25:03;17.20;99.90
13256;DHT22;37913;48.370;10.930;2023-08-01T00:27:30;17.30;99.90
13256;DHT22;37913;48.370;10.930;2023-08-01T00:29:59;17.30;99.90
13256;DHT22;37913;48.370;10.930;2023-08-01T00:32:26;17.30;99.90
13256;DHT22;37913;48.370;10.930;2023-08-01T00:34:53;17.20;99.90
13256;DHT22;37913;48.370;10.930;2023-08-01T00:37:19;17.00;99.90
13256;DHT22;37913;48.370;10.930;2023-08-01T00:39:46;16.90;99.90
13256;DHT22;37913;48.370;10.930;2023-08-01T00:42:13;16.80;99.90
13256;DHT22;37913;48.370;10.930;2023-08-01T00:44:40;16.80;99.90
13256;DHT22;37913;48.370;10.930;2023-08-01T00:47:09;16.60;99.90
13256;DHT22;37913;48.370;10.930;2023-08-01T00:49:36;16.50;99.90
13256;DHT22;37913;48.370;10.930;2023-08-01T00:52:03;16.70;99.90
13256;DHT22;37913;48.370;10.930;2023-08-01T00:54:30;16.60;99.90
13256;DHT22;37913;48.370;10.930;2023-08-01T00:57:03;16.70;99.90
13256;DHT22;37913;48.370;10.930;2023-08-01T00:59:30;16.70;99.90
13256;DHT22;37913;48.370;10.930;2023-08-01T01:01:57;16.70;99.90
13256;DHT22;37913;48.370;10.930;2023-08-01T01:04:26;16.70;99.90
13256;DHT22;37913;48.370;10.930;2023-08-01T01:07:00;16.60;99.90
13256;DHT22;37913;48.370;10.930;2023-08-01T01:09:30;16.50;99.90
13256;DHT22;37913;48.370;10.930;2023-08-01T01:11:58;16.50;99.90
13256;DHT22;37913;48.370;10.930;2023-08-01T01:14:26;16.40;99.90
13256;DHT22;37913;48.370;10.930;2023-08-01T01:16:53;16.40;99.90
13256;DHT22;37913;48.370;10.930;2023-08-01T01:19:20;16.50;99.90
13256;DHT22;37913;48.370;10.930;2023-08-01T01:21:48;16.50;99.90
13256;DHT22;37913;48.370;10.930;2023-08-01T01:24:16;16.50;99.90
13256;DHT22;37913;48.370;10.930;2023-08-01T01:26:44;16.60;99.90
13256;DHT22;37913;48.370;10.930;2023-08-01T01:29:13;16.70;99.90
13256;DHT22;37913;48.370;10.930;2023-08-01T01:31:41;16.70;99.90
13256;DHT22;37913;48.370;10.930;2023-08-01T01:34:08;16.50;99.90
13256;DHT22;37913;48.370;10.930;2023-08-01T01:36:35;16.50;99.90
13256;DHT22;37913;48.370;10.930;2023-08-01T01:39:04;16.50;99.90
13256;DHT22;37913;48.370;10.930;2023-08-01T01:41:31;16.60;99.90
13256;DHT22;37913;48.370;10.930;2023-08-01T01:43:58;16.60;99.90
13256;DHT22;37913;48.370;10.930;2023-08-01T01:46:25;16.60;99.90
13256;DHT22;37913;48.370;10.930;2023-08-01T01:48:52;16.50;99.90
13256;DHT22;37913;48.370;10.930;2023-08-01T01:51:19;16.60;99.90
13256;DHT22;37913;48.370;10.930;2023-08-01T01:53:47;16.60;99.90
13256;DHT22;37913;48.370;10.930;2023-08-01T01:56:15;16.60;99.90
13256;DHT22;37913;48.370;10.930;2023-08-01T01:58:42;16.70;99.90
13256;DHT22;37913;48.370;10.930;2023-08-01T02:01:09;16.80;99.90
13256;DHT22;37913;48.370;10.930;2023-08-01T02:03:36;16.70;99.90
13256;DHT22;37913;48.370;10.930;2023-08-01T02:06:03;16.70;99.90
13256;DHT22;37913;48.370;10.930;2023-08-01T02:08:30;16.80;99.90
13256;DHT22;37913;48.370;10.930;2023-08-01T02:10:57;16.90;99.90
13256;DHT22;37913;48.370;10.930;2023-08-01T02:13:26;17.00;99.90
13256;DHT22;37913;48.370;10.930;2023-08-01T02:15:54;17.00;99.90
13256;DHT22;37913;48.370;10.930;2023-08-01T02:18:21;17.00;99.90
13256;DHT22;37913;48.370;10.930;2023-08-01T02:20:48;17.10;99.90
13256;DHT22;37913;48.370;10.930;2023-08-01T02:23:15;17.10;99.90
13256;DHT22;37913;48.370;10.930;2023-08-01T02:25:42;17.20;99.90
13256;DHT22;37913;48.370;10.930;2023-08-01T02:28:09;17.30;99.90
13256;DHT22;37913;48.370;10.930;2023-08-01T02:30:37;17.30;99.90
13256;DHT22;37913;48.370;10.930;2023-08-01T02:33:04;17.30;99.90
13256;DHT22;37913;48.370;10.930;2023-08-01T02:35:32;17.40;99.90
13256;DHT22;37913;48.370;10.930;2023-08-01T02:37:59;17.40;99.90
13256;DHT22;37913;48.370;10.930;2023-08-01T02:40:26;17.30;99.90
13256;DHT22;37913;48.370;10.930;2023-08-01T02:42:52;17.10;99.90
13256;DHT22;37913;48.370;10.930;2023-08-01T02:45:19;16.80;99.90
13256;DHT22;37913;48.370;10.930;2023-08-01T02:47:47;16.50;99.90
13256;DHT22;37913;48.370;10.930;2023-08-01T02:50:15;16.40;99.90
13256;DHT22;37913;48.370;10.930;2023-08-01T02:52:41;16.40;99.90
13256;DHT22;37913;48.370;10.930;2023-08-01T02:55:08;16.40;99.90
13256;DHT22;37913;48.370;10.930;2023-08-01T02:57:36;16.30;99.90
13256;DHT22;37913;48.370;10.930;2023-08-01T03:00:04;16.30;99.90
13256;DHT22;37913;48.370;10.930;2023-08-01T03:02:31;16.30;99.90
13256;DHT22;37913;48.370;10.930;2023-08-01T03:05:00;16.30;99.90
13256;DHT22;37913;48.370;10.930;2023-08-01T03:07:30;16.20;99.90
13256;DHT22;37913;48.370;10.930;2023-08-01T03:09:57;16.20;99.90
13256;DHT22;37913;48.370;10.930;2023-08-01T03:12:24;16.20;99.90
13256;DHT22;37913;48.370;10.930;2023-08-01T03:14:51;15.90;99.90
13256;DHT22;37913;48.370;10.930;2023-08-01T03:17:18;15.60;99.90
13256;DHT22;37913;48.370;10.930;2023-08-01T03:19:45;15.60;99.90
13256;DHT22;37913;48.370;10.930;2023-08-01T03:22:13;15.50;99.90
13256;DHT22;37913;48.370;10.930;2023-08-01T03:24:40;15.40;99.90
13256;DHT22;37913;48.370;10.930;2023-08-01T03:27:07;15.40;99.90
13256;DHT22;37913;48.370;10.930;2023-08-01T03:29:33;15.30;99.90
13256;DHT22;37913;48.370;10.930;2023-08-01T03:32:00;15.40;99.90
13256;DHT22;37913;48.370;10.930;2023-08-01T03:34:26;15.40;99.90
13256;DHT22;37913;48.370;10.930;2023-08-01T03:36:53;15.20;99.90
13256;DHT22;37913;48.370;10.930;2023-08-01T03:39:21;15.30;99.90
13256;DHT22;37913;48.370;10.930;2023-08-01T03:41:48;15.30;99.90
13256;DHT22;37913;48.370;10.930;2023-08-01T03:44:15;15.20;99.90
13256;DHT22;37913;48.370;10.930;2023-08-01T03:46:42;15.20;99.90
13256;DHT22;37913;48.370;10.930;2023-08-01T03:49:10;15.20;99.90
13256;DHT22;37913;48.370;10.930;2023-08-01T03:51:37;15.20;99.90
13256;DHT22;37913;48.370;10.930;2023-08-01T03:54:04;15.10;99.90
13256;DHT22;37913;48.370;10.930;2023-08-01T03:56:33;15.10;99.90
13256;DHT22;37913;48.370;10.930;2023-08-01T03:59:00;15.10;99.90
13256;DHT22;37913;48.370;10.930;2023-08-01T04:01:30;15.20;99.90
13256;DHT22;37913;48.370;10.930;2023-08-01T04:03:56;15.20;99.90
13256;DHT22;37913;48.370;10.930;2023-08-01T04:06:23;15.20;99.90
13256;DHT22;37913;48.370;10.930;2023-08-01T04:08:50;15.20;99.90
13256;DHT22;37913;48.370;10.930;2023-08-01T04:11:18;15.20;99.90
13256;DHT22;37913;48.370;10.930;2023-08-01T04:13:46;15.20;99.90
13256;DHT22;37913;48.370;10.930;2023-08-01T04:16:13;15.20;99.90
13256;DHT22;37913;48.370;10.930;2023-08-01T04:18:40;15.30;99.90
13256;DHT22;37913;48.370;10.930;2023-08-01T04:21:08;15.40;99.90
13256;DHT22;37913;48.370;10.930;2023-08-01T04:23:35;15.30;99.90
13256;DHT22;37913;48.370;10.930;2023-08-01T04:26:02;15.40;99.90
13256;DHT22;37913;48.370;10.930;2023-08-01T04:28:31;15.40;99.90
13256;DHT22;37913;48.370;10.930;2023-08-01T04:31:00;15.40;99.90
13256;DHT22;37913;48.370;10.930;2023-08-01T04:33:27;15.40;99.90
13256;DHT22;37913;48.370;10.930;2023-08-01T04:35:54;15.40;99.90
13256;DHT22;37913;48.370;10.930;2023-08-01T04:38:21;15.40;99.90
13256;DHT22;37913;48.370;10.930;2023-08-01T04:40:47;15.40;99.90
13256;DHT22;37913;48.370;10.930;2023-08-01T04:43:14;15.50;99.90
13256;DHT22;37913;48.370;10.930;2023-08-01T04:45:41;15.40;99.90
13256;DHT22;37913;48.370;10.930;2023-08-01T04:48:10;15.40;99.90
13256;DHT22;37913;48.370;10.930;2023-08-01T04:50:36;15.40;99.90
13256;DHT22;37913;48.370;10.930;2023-08-01T04:53:03;15.50;99.90
13256;DHT22;37913;48.370;10.930;2023-08-01T04:55:32;15.40;99.90
13256;DHT22;37913;48.370;10.930;2023-08-01T04:57:58;15.40;99.90
13256;DHT22;37913;48.370;10.930;2023-08-01T05:00:26;15.50;99.90
13256;DHT22;37913;48.370;10.930;2023-08-01T05:02:53;15.50;99.90
13256;DHT22;37913;48.370;10.930;2023-08-01T05:05:21;15.50;99.90
13256;DHT22;37913;48.370;10.930;2023-08-01T05:07:48;15.50;99.90
13256;DHT22;37913;48.370;10.930;2023-08-01T05:10:15;15.60;99.90
13256;DHT22;37913;48.370;10.930;2023-08-01T05:12:41;15.60;99.90
13256;DHT22;37913;48.370;10.930;2023-08-01T05:15:09;15.60;99.90
13256;DHT22;37913;48.370;10.930;2023-08-01T05:17:36;15.60;99.90
13256;DHT22;37913;48.370;10.930;2023-08-01T05:20:03;15.60;99.90
13256;DHT22;37913;48.370;10.930;2023-08-01T05:22:32;15.60;99.90
13256;DHT22;37913;48.370;10.930;2023-08-01T05:25:00;15.70;99.90
13256;DHT22;37913;48.370;10.930;2023-08-01T05:27:27;15.70;99.90
13256;DHT22;37913;48.370;10.930;2023-08-01T05:29:54;15.70;99.90
13256;DHT22;37913;48.370;10.930;2023-08-01T05:32:21;15.60;99.90
13256;DHT22;37913;48.370;10.930;2023-08-01T05:34:48;15.60;99.90
13256;DHT22;37913;48.370;10.930;2023-08-01T05:37:15;15.70;99.90
13256;DHT22;37913;48.370;10.930;2023-08-01T05:39:43;15.80;99.90
13256;DHT22;37913;48.370;10.930;2023-08-01T05:42:10;15.80;99.90
13256;DHT22;37913;48.370;10.930;2023-08-01T05:44:37;15.80;99.90
13256;DHT22;37913;48.370;10.930;2023-08-01T05:47:04;15.80;99.90
13256;DHT22;37913;48.370;10.930;2023-08-01T05:49:35;15.90;99.90
13256;DHT22;37913;48.370;10.930;2023-08-01T05:52:02;15.80;99.90
13256;DHT22;37913;48.370;10.930;2023-08-01T05:54:28;15.80;99.90
13256;DHT22;37913;48.370;10.930;2023-08-01T05:56:57;15.70;99.90
13256;DHT22;37913;48.370;10.930;2023-08-01T05:59:24;15.70;99.90
13256;DHT22;37913;48.370;10.930;2023-08-01T06:01:50;15.70;99.90
13256;DHT22;37913;48.370;10.930;2023-08-01T06:04:17;15.70;99.90
13256;DHT22;37913;48.370;10.930;2023-08-01T06:06:52;15.60;99.90
13256;DHT22;37913;48.370;10.930;2023-08-01T06:09:19;15.60;99.90
13256;DHT22;37913;48.370;10.930;2023-08-01T06:11:49;15.60;99.90
13256;DHT22;37913;48.370;10.930;2023-08-01T06:14:17;15.70;99.90
13256;DHT22;37913;48.370;10.930;2023-08-01T06:16:44;15.60;99.90
13256;DHT22;37913;48.370;10.930;2023-08-01T06:19:11;15.60;99.90
13256;DHT22;37913;48.370;10.930;2023-08-01T06:21:43;15.70;99.90
13256;DHT22;37913;48.370;10.930;2023-08-01T06:24:16;15.60;99.90
13256;DHT22;37913;48.370;10.930;2023-08-01T06:26:44;15.60;99.90
13256;DHT22;37913;48.370;10.930;2023-08-01T06:29:12;15.60;99.90
13256;DHT22;37913;48.370;10.930;2023-08-01T06:31:40;15.50;99.90
13256;DHT22;37913;48.370;10.930;2023-08-01T06:34:07;15.70;99.90
13256;DHT22;37913;48.370;10.930;2023-08-01T06:36:36;15.70;99.90
13256;DHT22;37913;48.370;10.930;2023-08-01T06:39:03;15.50;99.90
13256;DHT22;37913;48.370;10.930;2023-08-01T06:41:36;15.60;99.90
13256;DHT22;37913;48.370;10.930;2023-08-01T06:44:03;15.70;99.90
13256;DHT22;37913;48.370;10.930;2023-08-01T06:46:30;15.70;99.90
13256;DHT22;37913;48.370;10.930;2023-08-01T06:49:01;15.80;99.90
13256;DHT22;37913;48.370;10.930;2023-08-01T06:51:36;15.90;99.90
13256;DHT22;37913;48.370;10.930;2023-08-01T06:54:03;16.00;99.90
13256;DHT22;37913;48.370;10.930;2023-08-01T06:56:43;16.20;99.90
13256;DHT22;37913;48.370;10.930;2023-08-01T06:59:13;16.20;99.90
13256;DHT22;37913;48.370;10.930;2023-08-01T07:01:43;16.50;99.90
13256;DHT22;37913;48.370;10.930;2023-08-01T07:04:11;16.70;99.90
13256;DHT22;37913;48.370;10.930;2023-08-01T07:06:40;17.20;99.90
13256;DHT22;37913;48.370;10.930;2023-08-01T07:09:07;16.70;99.90
13256;DHT22;37913;48.370;10.930;2023-08-01T07:11:40;16.80;99.90
13256;DHT22;37913;48.370;10.930;2023-08-01T07:14:11;17.00;99.90
13256;DHT22;37913;48.370;10.930;2023-08-01T07:16:38;16.90;99.90
13256;DHT22;37913;48.370;10.930;2023-08-01T07:19:07;16.90;99.90
13256;DHT22;37913;48.370;10.930;2023-08-01T07:21:38;17.20;99.90
13256;DHT22;37913;48.370;10.930;2023-08-01T07:24:06;17.40;99.90
13256;DHT22;37913;48.370;10.930;2023-08-01T07:26:38;17.70;99.90
13256;DHT22;37913;48.370;10.930;2023-08-01T07:29:11;18.20;99.90
13256;DHT22;37913;48.370;10.930;2023-08-01T07:31:41;18.30;99.90
13256;DHT22;37913;48.370;10.930;2023-08-01T07:34:09;18.50;99.90
13256;DHT22;37913;48.370;10.930;2023-08-01T07:36:39;18.30;99.90
13256;DHT22;37913;48.370;10.930;2023-08-01T07:39:06;18.10;99.90
13256;DHT22;37913;48.370;10.930;2023-08-01T07:41:35;18.00;99.90
13256;DHT22;37913;48.370;10.930;2023-08-01T07:44:02;18.00;99.90
13256;DHT22;37913;48.370;10.930;2023-08-01T07:46:31;18.00;99.90
13256;DHT22;37913;48.370;10.930;2023-08-01T07:48:58;17.80;99.90
13256;DHT22;37913;48.370;10.930;2023-08-01T07:51:25;17.60;99.90
13256;DHT22;37913;48.370;10.930;2023-08-01T07:53:55;17.60;99.90
13256;DHT22;37913;48.370;10.930;2023-08-01T07:56:21;17.90;99.90
13256;DHT22;37913;48.370;10.930;2023-08-01T07:58:49;17.90;99.90
13256;DHT22;37913;48.370;10.930;2023-08-01T08:01:17;18.00;99.90
13256;DHT22;37913;48.370;10.930;2023-08-01T08:03:45;18.10;99.90
13256;DHT22;37913;48.370;10.930;2023-08-01T08:06:13;18.30;99.90
13256;DHT22;37913;48.370;10.930;2023-08-01T08:08:41;18.40;99.90
13256;DHT22;37913;48.370;10.930;2023-08-01T08:11:09;18.50;99.90
13256;DHT22;37913;48.370;10.930;2023-08-01T08:13:38;18.50;99.90
13256;DHT22;37913;48.370;10.930;2023-08-01T08:16:06;18.60;99.90
13256;DHT22;37913;48.370;10.930;2023-08-01T08:18:33;18.70;99.90
13256;DHT22;37913;48.370;10.930;2023-08-01T08:21:01;18.80;99.90
13256;DHT22;37913;48.370;10.930;2023-08-01T08:23:29;19.00;99.90
13256;DHT22;37913;48.370;10.930;2023-08-01T08:25:58;18.90;99.90
13256;DHT22;37913;48.370;10.930;2023-08-01T08:28:31;19.00;99.90
13256;DHT22;37913;48.370;10.930;2023-08-01T08:31:11;19.10;99.90
13256;DHT22;37913;48.370;10.930;2023-08-01T08:33:38;19.10;99.90
13256;DHT22;37913;48.370;10.930;2023-08-01T08:36:07;19.20;99.90
13256;DHT22;37913;48.370;10.930;2023-08-01T08:41:46;19.50;99.90
13256;DHT22;37913;48.370;10.930;2023-08-01T08:44:22;19.80;99.90
13256;DHT22;37913;48.370;10.930;2023-08-01T08:47:02;20.00;99.90
13256;DHT22;37913;48.370;10.930;2023-08-01T08:49:37;20.20;99.90
13256;DHT22;37913;48.370;10.930;2023-08-01T08:52:11;20.60;99.90
13256;DHT22;37913;48.370;10.930;2023-08-01T08:54:40;20.50;99.90
13256;DHT22;37913;48.370;10.930;2023-08-01T08:57:17;20.60;99.90
13256;DHT22;37913;48.370;10.930;2023-08-01T08:59:48;20.40;99.90
13256;DHT22;37913;48.370;10.930;2023-08-01T09:02:16;20.60;99.90
13256;DHT22;37913;48.370;10.930;2023-08-01T09:04:57;20.90;99.90
13256;DHT22;37913;48.370;10.930;2023-08-01T09:07:42;21.20;99.90
13256;DHT22;37913;48.370;10.930;2023-08-01T09:10:24;21.50;99.90
13256;DHT22;37913;48.370;10.930;2023-08-01T09:12:56;21.70;99.90
13256;DHT22;37913;48.370;10.930;2023-08-01T09:15:40;21.90;99.90
13256;DHT22;37913;48.370;10.930;2023-08-01T09:18:07;22.20;99.90
13256;DHT22;37913;48.370;10.930;2023-08-01T09:21:03;22.30;99.90
13256;DHT22;37913;48.370;10.930;2023-08-01T09:23:40;22.60;99.90
13256;DHT22;37913;48.370;10.930;2023-08-01T09:26:19;22.20;99.90
13256;DHT22;37913;48.370;10.930;2023-08-01T09:28:55;22.40;99.90
13256;DHT22;37913;48.370;10.930;2023-08-01T09:31:28;23.10;99.90
13256;DHT22;37913;48.370;10.930;2023-08-01T09:33:57;23.80;99.90
13256;DHT22;37913;48.370;10.930;2023-08-01T09:36:33;23.80;99.90
13256;DHT22;37913;48.370;10.930;2023-08-01T09:39:03;23.30;99.90
13256;DHT22;37913;48.370;10.930;2023-08-01T09:41:37;22.50;99.90
13256;DHT22;37913;48.370;10.930;2023-08-01T09:44:10;21.90;99.90
13256;DHT22;37913;48.370;10.930;2023-08-01T09:46:57;20.70;99.90
13256;DHT22;37913;48.370;10.930;2023-08-01T09:49:27;19.80;99.90
13256;DHT22;37913;48.370;10.930;2023-08-01T09:51:55;19.60;99.90
13256;DHT22;37913;48.370;10.930;2023-08-01T09:54:23;19.00;99.90
13256;DHT22;37913;48.370;10.930;2023-08-01T09:56:53;17.60;99.90
13256;DHT22;37913;48.370;10.930;2023-08-01T09:59:22;16.60;99.90
13256;DHT22;37913;48.370;10.930;2023-08-01T10:01:52;16.60;99.90
13256;DHT22;37913;48.370;10.930;2023-08-01T10:04:23;16.60;99.90
13256;DHT22;37913;48.370;10.930;2023-08-01T10:06:54;16.40;99.90
13256;DHT22;37913;48.370;10.930;2023-08-01T10:09:26;16.00;99.90
13256;DHT22;37913;48.370;10.930;2023-08-01T10:11:57;15.70;99.90
13256;DHT22;37913;48.370;10.930;2023-08-01T10:14:25;15.70;99.90
13256;DHT22;37913;48.370;10.930;2023-08-01T10:16:54;15.60;99.90
13256;DHT22;37913;48.370;10.930;2023-08-01T10:19:25;15.40;99.90
13256;DHT22;37913;48.370;10.930;2023-08-01T10:21:54;15.50;99.90
13256;DHT22;37913;48.370;10.930;2023-08-01T10:24:30;15.30;99.90
13256;DHT22;37913;48.370;10.930;2023-08-01T10:27:08;15.20;99.90
13256;DHT22;37913;48.370;10.930;2023-08-01T10:29:37;15.40;99.90
13256;DHT22;37913;48.370;10.930;2023-08-01T10:32:06;15.40;99.90
13256;DHT22;37913;48.370;10.930;2023-08-01T10:34:35;15.50;99.90
13256;DHT22;37913;48.370;10.930;2023-08-01T10:37:02;15.80;99.90
13256;DHT22;37913;48.370;10.930;2023-08-01T10:39:30;15.90;99.90
13256;DHT22;37913;48.370;10.930;2023-08-01T10:41:58;15.90;99.90
13256;DHT22;37913;48.370;10.930;2023-08-01T10:44:26;16.20;99.90
13256;DHT22;37913;48.370;10.930;2023-08-01T10:46:54;16.20;99.90
13256;DHT22;37913;48.370;10.930;2023-08-01T10:49:36;16.30;99.90
13256;DHT22;37913;48.370;10.930;2023-08-01T10:52:04;16.00;99.90
13256;DHT22;37913;48.370;10.930;2023-08-01T10:54:42;16.20;99.90
13256;DHT22;37913;48.370;10.930;2023-08-01T10:57:09;16.30;99.90
13256;DHT22;37913;48.370;10.930;2023-08-01T10:59:43;16.30;99.90
13256;DHT22;37913;48.370;10.930;2023-08-01T11:02:10;15.90;99.90
13256;DHT22;37913;48.370;10.930;2023-08-01T11:04:38;16.30;99.90
13256;DHT22;37913;48.370;10.930;2023-08-01T11:07:05;16.40;99.90
13256;DHT22;37913;48.370;10.930;2023-08-01T11:09:32;16.40;99.90
13256;DHT22;37913;48.370;10.930;2023-08-01T11:12:00;16.10;99.90
13256;DHT22;37913;48.370;10.930;2023-08-01T11:14:28;16.20;99.90
13256;DHT22;37913;48.370;10.930;2023-08-01T11:16:56;16.30;99.90
13256;DHT22;37913;48.370;10.930;2023-08-01T11:19:25;16.30;99.90
13256;DHT22;37913;48.370;10.930;2023-08-01T11:21:54;16.20;99.90
13256;DHT22;37913;48.370;10.930;2023-08-01T11:24:23;16.10;99.90
13256;DHT22;37913;48.370;10.930;2023-08-01T11:26:51;16.10;99.90
13256;DHT22;37913;48.370;10.930;2023-08-01T11:29:19;16.00;99.90
13256;DHT22;37913;48.370;10.930;2023-08-01T11:31:53;15.90;99.90
13256;DHT22;37913;48.370;10.930;2023-08-01T11:34:20;16.00;99.90
13256;DHT22;37913;48.370;10.930;2023-08-01T11:36:48;15.80;99.90
13256;DHT22;37913;48.370;10.930;2023-08-01T11:39:17;15.90;99.90
13256;DHT22;37913;48.370;10.930;2023-08-01T11:41:44;16.00;99.90
13256;DHT22;37913;48.370;10.930;2023-08-01T11:44:11;16.00;99.90
13256;DHT22;37913;48.370;10.930;2023-08-01T11:46:39;16.40;99.90
13256;DHT22;37913;48.370;10.930;2023-08-01T11:49:07;16.70;99.90
13256;DHT22;37913;48.370;10.930;2023-08-01T11:51:39;17.30;99.90
13256;DHT22;37913;48.370;10.930;2023-08-01T11:54:06;17.80;99.90
13256;DHT22;37913;48.370;10.930;2023-08-01T11:56:38;17.50;99.90
13256;DHT22;37913;48.370;10.930;2023-08-01T11:59:08;18.00;99.90
13256;DHT22;37913;48.370;10.930;2023-08-01T12:01:40;18.10;99.90
13256;DHT22;37913;48.370;10.930;2023-08-01T12:04:07;18.10;99.90
13256;DHT22;37913;48.370;10.930;2023-08-01T12:06:34;18.00;99.90
13256;DHT22;37913;48.370;10.930;2023-08-01T12:09:08;18.20;99.90
13256;DHT22;37913;48.370;10.930;2023-08-01T12:11:36;17.90;99.90
13256;DHT22;37913;48.370;10.930;2023-08-01T12:14:05;17.60;99.90
13256;DHT22;37913;48.370;10.930;2023-08-01T12:16:33;17.40;99.90
13256;DHT22;37913;48.370;10.930;2023-08-01T12:19:00;17.40;99.90
13256;DHT22;37913;48.370;10.930;2023-08-01T12:21:27;17.30;99.90
13256;DHT22;37913;48.370;10.930;2023-08-01T12:23:54;17.10;99.90
13256;DHT22;37913;48.370;10.930;2023-08-01T12:26:22;17.10;99.90
13256;DHT22;37913;48.370;10.930;2023-08-01T12:28:51;17.10;99.90
13256;DHT22;37913;48.370;10.930;2023-08-01T12:31:18;17.20;99.90
13256;DHT22;37913;48.370;10.930;2023-08-01T12:33:45;16.70;99.90
13256;DHT22;37913;48.370;10.930;2023-08-01T12:36:13;16.60;99.90
13256;DHT22;37913;48.370;10.930;2023-08-01T12:38:40;16.40;99.90
13256;DHT22;37913;48.370;10.930;2023-08-01T12:41:07;16.20;99.90
13256;DHT22;37913;48.370;10.930;2023-08-01T12:43:34;16.20;99.90
13256;DHT22;37913;48.370;10.930;2023-08-01T12:46:02;16.20;99.90
13256;DHT22;37913;48.370;10.930;2023-08-01T12:48:30;16.20;99.90
13256;DHT22;37913;48.370;10.930;2023-08-01T12:50:57;16.30;99.90
13256;DHT22;37913;48.370;10.930;2023-08-01T12:53:25;16.40;99.90
13256;DHT22;37913;48.370;10.930;2023-08-01T12:55:53;16.60;99.90
13256;DHT22;37913;48.370;10.930;2023-08-01T12:58:19;18.10;99.90
13256;DHT22;37913;48.370;10.930;2023-08-01T13:00:46;21.70;99.90
13256;DHT22;37913;48.370;10.930;2023-08-01T13:03:15;19.90;99.90
13256;DHT22;37913;48.370;10.930;2023-08-01T13:05:42;18.60;99.90
13256;DHT22;37913;48.370;10.930;2023-08-01T13:08:09;18.00;99.90
13256;DHT22;37913;48.370;10.930;2023-08-01T13:10:38;17.00;99.90
13256;DHT22;37913;48.370;10.930;2023-08-01T13:13:05;17.00;99.90
13256;DHT22;37913;48.370;10.930;2023-08-01T13:15:32;16.80;99.90
13256;DHT22;37913;48.370;10.930;2023-08-01T13:17:59;16.90;99.90
13256;DHT22;37913;48.370;10.930;2023-08-01T13:20:27;16.70;99.90
13256;DHT22;37913;48.370;10.930;2023-08-01T13:22:54;16.70;99.90
13256;DHT22;37913;48.370;10.930;2023-08-01T13:25:21;16.70;99.90
13256;DHT22;37913;48.370;10.930;2023-08-01T13:27:48;16.70;99.90
13256;DHT22;37913;48.370;10.930;2023-08-01T13:30:15;16.60;99.90
13256;DHT22;37913;48.370;10.930;2023-08-01T13:32:43;16.50;99.90
13256;DHT22;37913;48.370;10.930;2023-08-01T13:35:11;16.50;99.90
13256;DHT22;37913;48.370;10.930;2023-08-01T13:37:39;16.50;99.90
13256;DHT22;37913;48.370;10.930;2023-08-01T13:40:07;16.50;99.90
13256;DHT22;37913;48.370;10.930;2023-08-01T13:42:36;16.50;99.90
13256;DHT22;37913;48.370;10.930;2023-08-01T13:45:03;16.60;99.90
13256;DHT22;37913;48.370;10.930;2023-08-01T13:47:30;16.70;99.90
13256;DHT22;37913;48.370;10.930;2023-08-01T13:49:57;16.80;99.90
13256;DHT22;37913;48.370;10.930;2023-08-01T13:52:24;16.90;99.90
13256;DHT22;37913;48.370;10.930;2023-08-01T13:54:52;17.20;99.90
13256;DHT22;37913;48.370;10.930;2023-08-01T13:57:19;18.00;99.90
13256;DHT22;37913;48.370;10.930;2023-08-01T13:59:49;20.00;99.90
13256;DHT22;37913;48.370;10.930;2023-08-01T14:02:16;20.40;99.90
13256;DHT22;37913;48.370;10.930;2023-08-01T14:04:43;21.60;99.90
13256;DHT22;37913;48.370;10.930;2023-08-01T14:07:09;20.80;99.90
13256;DHT22;37913;48.370;10.930;2023-08-01T14:09:36;20.70;99.90
13256;DHT22;37913;48.370;10.930;2023-08-01T14:12:06;20.60;99.90
13256;DHT22;37913;48.370;10.930;2023-08-01T14:14:33;20.30;99.90
13256;DHT22;37913;48.370;10.930;2023-08-01T14:17:00;19.40;99.90
13256;DHT22;37913;48.370;10.930;2023-08-01T14:19:27;18.90;99.90
13256;DHT22;37913;48.370;10.930;2023-08-01T14:21:55;18.80;99.90
13256;DHT22;37913;48.370;10.930;2023-08-01T14:24:23;18.70;99.90
13256;DHT22;37913;48.370;10.930;2023-08-01T14:26:49;18.70;99.90
13256;DHT22;37913;48.370;10.930;2023-08-01T14:29:18;18.60;99.90
13256;DHT22;37913;48.370;10.930;2023-08-01T14:31:48;18.70;99.90
13256;DHT22;37913;48.370;10.930;2023-08-01T14:34:15;18.70;99.90
13256;DHT22;37913;48.370;10.930;2023-08-01T14:36:42;18.70;99.90
13256;DHT22;37913;48.370;10.930;2023-08-01T14:39:09;19.00;99.90
13256;DHT22;37913;48.370;10.930;2023-08-01T14:41:37;19.30;99.90
13256;DHT22;37913;48.370;10.930;2023-08-01T14:44:04;19.30;99.90
13256;DHT22;37913;48.370;10.930;2023-08-01T14:46:32;19.40;99.90
13256;DHT22;37913;48.370;10.930;2023-08-01T14:49:00;19.60;99.90
13256;DHT22;37913;48.370;10.930;2023-08-01T14:51:27;19.70;99.90
13256;DHT22;37913;48.370;10.930;2023-08-01T14:53:54;19.80;99.90
13256;DHT22;37913;48.370;10.930;2023-08-01T14:56:21;19.90;99.90
13256;DHT22;37913;48.370;10.930;2023-08-01T14:58:48;20.30;99.90
13256;DHT22;37913;48.370;10.930;2023-08-01T15:01:15;20.40;99.90
13256;DHT22;37913;48.370;10.930;2023-08-01T15:03:44;20.60;99.90
13256;DHT22;37913;48.370;10.930;2023-08-01T15:06:11;20.30;99.90
13256;DHT22;37913;48.370;10.930;2023-08-01T15:08:40;20.40;99.90
13256;DHT22;37913;48.370;10.930;2023-08-01T15:11:08;20.60;99.90
13256;DHT22;37913;48.370;10.930;2023-08-01T15:13:35;20.60;99.90
13256;DHT22;37913;48.370;10.930;2023-08-01T15:16:03;20.50;99.90
13256;DHT22;37913;48.370;10.930;2023-08-01T15:18:30;20.40;99.90
13256;DHT22;37913;48.370;10.930;2023-08-01T15:20:58;19.60;99.90
13256;DHT22;37913;48.370;10.930;2023-08-01T15:23:25;19.70;99.90
13256;DHT22;37913;48.370;10.930;2023-08-01T15:25:53;19.00;99.90